sensor_id;sensor_type;location;lat;lon;timestamp;P1;durP1;ratioP1;P2;durP2;ratioP2
43994;SDS011;51687;52.160;5.298;2023-06-10T00:00:27;6.93;;;4.55;;
43994;SDS011;51687;52.160;5.298;2023-06-10T00:02:53;4.82;;;3.95;;
43994;SDS011;51687;52.160;5.298;2023-06-10T00:05:20;11.65;;;4.30;;
43994;SDS011;51687;52.160;5.298;2023-06-10T00:07:47;6.13;;;4.65;;
43994;SDS011;51687;52.160;5.298;2023-06-10T00:10:15;11.52;;;4.53;;
43994;SDS011;51687;52.160;5.298;2023-06-10T00:12:42;9.60;;;4.80;;
43994;SDS011;51687;52.160;5.298;2023-06-10T00:15:10;6.50;;;4.90;;
43994;SDS011;51687;52.160;5.298;2023-06-10T00:17:38;4.77;;;4.43;;
43994;SDS011;51687;52.160;5.298;2023-06-10T00:20:09;8.43;;;4.00;;
43994;SDS011;51687;52.160;5.298;2023-06-10T00:22:38;5.38;;;4.35;;
43994;SDS011;51687;52.160;5.298;2023-06-10T00:25:09;7.88;;;4.88;;
43994;SDS011;51687;52.160;5.298;2023-06-10T00:27:37;5.63;;;4.25;;
43994;SDS011;51687;52.160;5.298;2023-06-10T00:30:04;4.80;;;4.28;;
43994;SDS011;51687;52.160;5.298;2023-06-10T00:32:33;4.93;;;4.43;;
43994;SDS011;51687;52.160;5.298;2023-06-10T00:37:33;4.70;;;4.28;;
43994;SDS011;51687;52.160;5.298;2023-06-10T00:40:05;4.85;;;4.35;;
43994;SDS011;51687;52.160;5.298;2023-06-10T00:42:33;9.32;;;4.40;;
43994;SDS011;51687;52.160;5.298;2023-06-10T00:44:59;5.53;;;4.20;;
43994;SDS011;51687;52.160;5.298;2023-06-10T00:47:27;5.20;;;4.65;;
43994;SDS011;51687;52.160;5.298;2023-06-10T00:49:54;7.85;;;4.45;;
43994;SDS011;51687;52.160;5.298;2023-06-10T00:52:22;7.20;;;3.95;;
43994;SDS011;51687;52.160;5.298;2023-06-10T00:54:50;7.13;;;4.50;;
43994;SDS011;51687;52.160;5.298;2023-06-10T00:57:17;10.15;;;4.82;;
43994;SDS011;51687;52.160;5.298;2023-06-10T00:59:46;4.97;;;4.03;;
43994;SDS011;51687;52.160;5.298;2023-06-10T01:02:15;7.38;;;3.50;;
43994;SDS011;51687;52.160;5.298;2023-06-10T01:04:42;6.22;;;4.68;;
43994;SDS011;51687;52.160;5.298;2023-06-10T01:15:19;4.50;;;4.10;;
43994;SDS011;51687;52.160;5.298;2023-06-10T01:20:26;4.68;;;4.13;;
43994;SDS011;51687;52.160;5.298;2023-06-10T01:22:56;4.53;;;4.13;;
43994;SDS011;51687;52.160;5.298;2023-06-10T01:25:29;6.28;;;4.28;;
43994;SDS011;51687;52.160;5.298;2023-06-10T01:28:04;4.28;;;3.88;;
43994;SDS011;51687;52.160;5.298;2023-06-10T01:31:06;5.88;;;4.03;;
43994;SDS011;51687;52.160;5.298;2023-06-10T01:33:39;8.20;;;4.45;;
43994;SDS011;51687;52.160;5.298;2023-06-10T01:36:09;5.30;;;4.07;;
43994;SDS011;51687;52.160;5.298;2023-06-10T01:38:44;7.15;;;4.05;;
43994;SDS011;51687;52.160;5.298;2023-06-10T01:41:13;5.25;;;4.53;;
43994;SDS011;51687;52.160;5.298;2023-06-10T01:43:42;4.75;;;4.00;;
43994;SDS011;51687;52.160;5.298;2023-06-10T01:46:11;4.80;;;4.20;;
43994;SDS011;51687;52.160;5.298;2023-06-10T01:48:38;4.03;;;3.57;;
43994;SDS011;51687;52.160;5.298;2023-06-10T01:51:05;9.13;;;3.95;;
43994;SDS011;51687;52.160;5.298;2023-06-10T01:53:32;4.20;;;3.80;;
43994;SDS011;51687;52.160;5.298;2023-06-10T01:55:58;7.53;;;4.22;;
43994;SDS011;51687;52.160;5.298;2023-06-10T01:58:26;5.00;;;4.50;;
43994;SDS011;51687;52.160;5.298;2023-06-10T02:00:52;4.90;;;4.35;;
43994;SDS011;51687;52.160;5.298;2023-06-10T02:03:19;5.28;;;4.32;;
43994;SDS011;51687;52.160;5.298;2023-06-10T02:05:46;9.95;;;5.07;;
43994;SDS011;51687;52.160;5.298;2023-06-10T02:08:13;7.18;;;4.38;;
43994;SDS011;51687;52.160;5.298;2023-06-10T02:10:40;5.93;;;3.80;;
43994;SDS011;51687;52.160;5.298;2023-06-10T02:13:07;4.57;;;4.18;;
43994;SDS011;51687;52.160;5.298;2023-06-10T02:15:34;9.25;;;4.65;;
43994;SDS011;51687;52.160;5.298;2023-06-10T02:18:01;7.88;;;4.75;;
43994;SDS011;51687;52.160;5.298;2023-06-10T02:20:28;4.80;;;4.18;;
43994;SDS011;51687;52.160;5.298;2023-06-10T02:22:55;5.70;;;4.22;;
43994;SDS011;51687;52.160;5.298;2023-06-10T02:25:22;4.82;;;4.43;;
43994;SDS011;51687;52.160;5.298;2023-06-10T02:27:49;4.47;;;4.05;;
43994;SDS011;51687;52.160;5.298;2023-06-10T02:30:16;6.13;;;4.80;;
43994;SDS011;51687;52.160;5.298;2023-06-10T02:32:42;4.82;;;4.30;;
43994;SDS011;51687;52.160;5.298;2023-06-10T02:35:14;5.03;;;4.55;;
43994;SDS011;51687;52.160;5.298;2023-06-10T02:37:41;4.82;;;4.18;;
43994;SDS011;51687;52.160;5.298;2023-06-10T02:40:08;5.65;;;4.00;;
43994;SDS011;51687;52.160;5.298;2023-06-10T02:42:35;5.40;;;4.75;;
43994;SDS011;51687;52.160;5.298;2023-06-10T02:45:02;4.93;;;4.47;;
43994;SDS011;51687;52.160;5.298;2023-06-10T02:47:30;5.20;;;4.40;;
43994;SDS011;51687;52.160;5.298;2023-06-10T02:49:57;9.15;;;5.00;;
43994;SDS011;51687;52.160;5.298;2023-06-10T02:52:23;5.07;;;4.57;;
43994;SDS011;51687;52.160;5.298;2023-06-10T02:54:51;8.17;;;4.27;;
43994;SDS011;51687;52.160;5.298;2023-06-10T02:57:19;10.35;;;4.45;;
43994;SDS011;51687;52.160;5.298;2023-06-10T02:59:47;4.30;;;3.90;;
43994;SDS011;51687;52.160;5.298;2023-06-10T03:02:15;7.78;;;4.57;;
43994;SDS011;51687;52.160;5.298;2023-06-10T03:04:42;5.35;;;4.55;;
43994;SDS011;51687;52.160;5.298;2023-06-10T03:07:09;5.15;;;4.68;;
43994;SDS011;51687;52.160;5.298;2023-06-10T03:09:37;6.88;;;4.65;;
43994;SDS011;51687;52.160;5.298;2023-06-10T03:12:04;8.95;;;4.63;;
43994;SDS011;51687;52.160;5.298;2023-06-10T03:14:32;7.80;;;4.88;;
43994;SDS011;51687;52.160;5.298;2023-06-10T03:16:59;7.03;;;5.00;;
43994;SDS011;51687;52.160;5.298;2023-06-10T03:19:25;5.60;;;5.10;;
43994;SDS011;51687;52.160;5.298;2023-06-10T03:22:08;5.35;;;4.95;;
43994;SDS011;51687;52.160;5.298;2023-06-10T03:24:37;5.32;;;4.75;;
43994;SDS011;51687;52.160;5.298;2023-06-10T03:27:07;9.73;;;5.00;;
43994;SDS011;51687;52.160;5.298;2023-06-10T03:29:34;5.90;;;4.70;;
43994;SDS011;51687;52.160;5.298;2023-06-10T03:32:01;7.10;;;5.10;;
43994;SDS011;51687;52.160;5.298;2023-06-10T03:34:28;5.45;;;4.88;;
43994;SDS011;51687;52.160;5.298;2023-06-10T03:36:56;6.82;;;5.82;;
43994;SDS011;51687;52.160;5.298;2023-06-10T03:39:23;10.85;;;5.07;;
43994;SDS011;51687;52.160;5.298;2023-06-10T03:41:50;5.75;;;5.15;;
43994;SDS011;51687;52.160;5.298;2023-06-10T03:44:18;7.38;;;4.90;;
43994;SDS011;51687;52.160;5.298;2023-06-10T03:46:45;6.15;;;5.28;;
43994;SDS011;51687;52.160;5.298;2023-06-10T03:49:11;8.27;;;4.40;;
43994;SDS011;51687;52.160;5.298;2023-06-10T03:51:38;5.63;;;5.10;;
43994;SDS011;51687;52.160;5.298;2023-06-10T03:54:05;5.25;;;4.85;;
43994;SDS011;51687;52.160;5.298;2023-06-10T03:56:32;6.30;;;5.05;;
43994;SDS011;51687;52.160;5.298;2023-06-10T03:58:58;5.43;;;4.25;;
43994;SDS011;51687;52.160;5.298;2023-06-10T04:01:26;5.63;;;5.10;;
43994;SDS011;51687;52.160;5.298;2023-06-10T04:03:54;5.57;;;4.75;;
43994;SDS011;51687;52.160;5.298;2023-06-10T04:06:21;7.38;;;5.07;;
43994;SDS011;51687;52.160;5.298;2023-06-10T04:08:48;7.93;;;5.05;;
43994;SDS011;51687;52.160;5.298;2023-06-10T04:11:15;6.88;;;5.05;;
43994;SDS011;51687;52.160;5.298;2023-06-10T04:13:42;5.07;;;4.68;;
43994;SDS011;51687;52.160;5.298;2023-06-10T04:16:09;11.00;;;5.70;;
43994;SDS011;51687;52.160;5.298;2023-06-10T04:18:36;9.40;;;5.20;;
43994;SDS011;51687;52.160;5.298;2023-06-10T04:21:03;6.70;;;5.03;;
43994;SDS011;51687;52.160;5.298;2023-06-10T04:23:30;8.65;;;5.07;;
43994;SDS011;51687;52.160;5.298;2023-06-10T04:25:57;6.35;;;5.25;;
43994;SDS011;51687;52.160;5.298;2023-06-10T04:28:25;8.30;;;5.22;;
43994;SDS011;51687;52.160;5.298;2023-06-10T04:30:53;5.63;;;5.13;;
43994;SDS011;51687;52.160;5.298;2023-06-10T04:33:20;9.68;;;4.93;;
43994;SDS011;51687;52.160;5.298;2023-06-10T04:35:46;5.57;;;4.53;;
43994;SDS011;51687;52.160;5.298;2023-06-10T04:38:14;7.00;;;4.68;;
43994;SDS011;51687;52.160;5.298;2023-06-10T04:40:40;6.05;;;5.10;;
43994;SDS011;51687;52.160;5.298;2023-06-10T04:43:07;7.10;;;5.05;;
43994;SDS011;51687;52.160;5.298;2023-06-10T04:45:34;7.07;;;5.22;;
43994;SDS011;51687;52.160;5.298;2023-06-10T04:48:02;10.77;;;5.13;;
43994;SDS011;51687;52.160;5.298;2023-06-10T04:50:29;5.95;;;5.45;;
43994;SDS011;51687;52.160;5.298;2023-06-10T04:52:56;5.97;;;5.38;;
43994;SDS011;51687;52.160;5.298;2023-06-10T04:55:23;6.43;;;5.00;;
43994;SDS011;51687;52.160;5.298;2023-06-10T04:57:50;5.70;;;5.20;;
43994;SDS011;51687;52.160;5.298;2023-06-10T05:00:18;7.97;;;5.38;;
43994;SDS011;51687;52.160;5.298;2023-06-10T05:02:45;5.72;;;5.13;;
43994;SDS011;51687;52.160;5.298;2023-06-10T05:05:16;7.25;;;4.93;;
43994;SDS011;51687;52.160;5.298;2023-06-10T05:07:44;5.38;;;4.43;;
43994;SDS011;51687;52.160;5.298;2023-06-10T05:10:11;6.00;;;5.15;;
43994;SDS011;51687;52.160;5.298;2023-06-10T05:12:40;7.97;;;5.35;;
43994;SDS011;51687;52.160;5.298;2023-06-10T05:15:07;6.05;;;4.95;;
43994;SDS011;51687;52.160;5.298;2023-06-10T05:17:35;5.82;;;5.22;;
43994;SDS011;51687;52.160;5.298;2023-06-10T05:20:02;6.53;;;5.03;;
43994;SDS011;51687;52.160;5.298;2023-06-10T05:22:30;5.72;;;5.15;;
43994;SDS011;51687;52.160;5.298;2023-06-10T05:24:56;6.25;;;5.10;;
43994;SDS011;51687;52.160;5.298;2023-06-10T05:27:23;5.85;;;5.20;;
43994;SDS011;51687;52.160;5.298;2023-06-10T05:29:50;6.80;;;5.35;;
43994;SDS011;51687;52.160;5.298;2023-06-10T05:32:18;8.38;;;5.28;;
43994;SDS011;51687;52.160;5.298;2023-06-10T05:34:44;6.07;;;5.47;;
43994;SDS011;51687;52.160;5.298;2023-06-10T05:37:12;5.30;;;4.80;;
43994;SDS011;51687;52.160;5.298;2023-06-10T05:39:39;9.52;;;4.90;;
43994;SDS011;51687;52.160;5.298;2023-06-10T05:42:06;6.47;;;5.35;;
43994;SDS011;51687;52.160;5.298;2023-06-10T05:44:34;7.63;;;6.18;;
43994;SDS011;51687;52.160;5.298;2023-06-10T05:47:01;8.75;;;5.47;;
43994;SDS011;51687;52.160;5.298;2023-06-10T05:49:28;6.32;;;5.50;;
43994;SDS011;51687;52.160;5.298;2023-06-10T05:51:55;6.32;;;5.50;;
43994;SDS011;51687;52.160;5.298;2023-06-10T05:54:25;6.38;;;5.03;;
43994;SDS011;51687;52.160;5.298;2023-06-10T05:56:55;7.18;;;6.22;;
43994;SDS011;51687;52.160;5.298;2023-06-10T05:59:22;6.03;;;4.88;;
43994;SDS011;51687;52.160;5.298;2023-06-10T06:01:50;6.88;;;4.70;;
43994;SDS011;51687;52.160;5.298;2023-06-10T06:04:18;9.52;;;5.07;;
43994;SDS011;51687;52.160;5.298;2023-06-10T06:06:45;6.18;;;5.10;;
43994;SDS011;51687;52.160;5.298;2023-06-10T06:09:11;5.55;;;5.03;;
43994;SDS011;51687;52.160;5.298;2023-06-10T06:11:38;5.63;;;5.03;;
43994;SDS011;51687;52.160;5.298;2023-06-10T06:14:05;12.63;;;5.57;;
43994;SDS011;51687;52.160;5.298;2023-06-10T06:16:32;5.68;;;5.10;;
43994;SDS011;51687;52.160;5.298;2023-06-10T06:18:59;5.63;;;5.10;;
43994;SDS011;51687;52.160;5.298;2023-06-10T06:21:26;6.55;;;4.70;;
43994;SDS011;51687;52.160;5.298;2023-06-10T06:23:54;10.43;;;4.95;;
43994;SDS011;51687;52.160;5.298;2023-06-10T06:26:21;7.78;;;5.43;;
43994;SDS011;51687;52.160;5.298;2023-06-10T06:28:47;10.35;;;5.53;;
43994;SDS011;51687;52.160;5.298;2023-06-10T06:31:14;6.90;;;5.03;;
43994;SDS011;51687;52.160;5.298;2023-06-10T06:33:41;7.15;;;5.18;;
43994;SDS011;51687;52.160;5.298;2023-06-10T06:36:08;9.52;;;5.03;;
43994;SDS011;51687;52.160;5.298;2023-06-10T06:38:34;6.38;;;5.15;;
43994;SDS011;51687;52.160;5.298;2023-06-10T06:41:01;5.43;;;4.85;;
43994;SDS011;51687;52.160;5.298;2023-06-10T06:43:29;5.82;;;5.07;;
43994;SDS011;51687;52.160;5.298;2023-06-10T06:45:57;5.00;;;4.45;;
43994;SDS011;51687;52.160;5.298;2023-06-10T06:48:25;8.53;;;4.77;;
43994;SDS011;51687;52.160;5.298;2023-06-10T06:50:52;6.28;;;4.57;;
43994;SDS011;51687;52.160;5.298;2023-06-10T06:53:19;5.30;;;4.80;;
43994;SDS011;51687;52.160;5.298;2023-06-10T06:55:45;7.13;;;4.97;;
43994;SDS011;51687;52.160;5.298;2023-06-10T06:58:12;9.38;;;4.90;;
43994;SDS011;51687;52.160;5.298;2023-06-10T07:00:40;6.32;;;5.25;;
43994;SDS011;51687;52.160;5.298;2023-06-10T07:03:09;8.90;;;4.55;;
43994;SDS011;51687;52.160;5.298;2023-06-10T07:05:37;5.85;;;4.82;;
43994;SDS011;51687;52.160;5.298;2023-06-10T07:08:05;6.97;;;5.22;;
43994;SDS011;51687;52.160;5.298;2023-06-10T07:10:32;6.32;;;5.07;;
43994;SDS011;51687;52.160;5.298;2023-06-10T07:12:59;9.23;;;4.80;;
43994;SDS011;51687;52.160;5.298;2023-06-10T07:15:26;5.78;;;5.00;;
43994;SDS011;51687;52.160;5.298;2023-06-10T07:17:53;8.93;;;4.95;;
43994;SDS011;51687;52.160;5.298;2023-06-10T07:20:19;7.18;;;5.47;;
43994;SDS011;51687;52.160;5.298;2023-06-10T07:22:46;7.50;;;4.78;;
43994;SDS011;51687;52.160;5.298;2023-06-10T07:25:13;5.60;;;5.10;;
43994;SDS011;51687;52.160;5.298;2023-06-10T07:27:41;5.78;;;5.05;;
43994;SDS011;51687;52.160;5.298;2023-06-10T07:30:08;6.47;;;4.88;;
43994;SDS011;51687;52.160;5.298;2023-06-10T07:32:35;16.38;;;4.88;;
43994;SDS011;51687;52.160;5.298;2023-06-10T07:35:02;7.35;;;5.32;;
43994;SDS011;51687;52.160;5.298;2023-06-10T07:37:29;5.57;;;5.07;;
43994;SDS011;51687;52.160;5.298;2023-06-10T07:39:56;9.52;;;5.50;;
43994;SDS011;51687;52.160;5.298;2023-06-10T07:42:23;5.53;;;4.72;;
43994;SDS011;51687;52.160;5.298;2023-06-10T07:44:50;6.25;;;5.15;;
43994;SDS011;51687;52.160;5.298;2023-06-10T07:47:17;5.85;;;5.28;;
43994;SDS011;51687;52.160;5.298;2023-06-10T07:49:44;6.97;;;5.05;;
43994;SDS011;51687;52.160;5.298;2023-06-10T07:52:11;7.03;;;5.32;;
43994;SDS011;51687;52.160;5.298;2023-06-10T07:54:38;6.28;;;5.03;;
43994;SDS011;51687;52.160;5.298;2023-06-10T07:57:05;7.93;;;5.80;;
43994;SDS011;51687;52.160;5.298;2023-06-10T07:59:33;5.03;;;4.63;;
43994;SDS011;51687;52.160;5.298;2023-06-10T08:02:00;6.97;;;4.93;;
43994;SDS011;51687;52.160;5.298;2023-06-10T08:04:26;6.00;;;4.70;;
43994;SDS011;51687;52.160;5.298;2023-06-10T08:06:54;6.10;;;4.47;;
43994;SDS011;51687;52.160;5.298;2023-06-10T08:09:20;8.48;;;4.68;;
43994;SDS011;51687;52.160;5.298;2023-06-10T08:11:49;6.10;;;4.78;;
43994;SDS011;51687;52.160;5.298;2023-06-10T08:14:16;12.38;;;5.32;;
43994;SDS011;51687;52.160;5.298;2023-06-10T08:16:43;9.05;;;4.93;;
43994;SDS011;51687;52.160;5.298;2023-06-10T08:19:10;5.03;;;4.33;;
43994;SDS011;51687;52.160;5.298;2023-06-10T08:21:37;5.85;;;4.28;;
43994;SDS011;51687;52.160;5.298;2023-06-10T08:24:06;4.68;;;4.28;;
43994;SDS011;51687;52.160;5.298;2023-06-10T08:26:33;5.65;;;4.60;;
43994;SDS011;51687;52.160;5.298;2023-06-10T08:29:00;7.25;;;4.60;;
43994;SDS011;51687;52.160;5.298;2023-06-10T08:31:27;11.80;;;5.30;;
43994;SDS011;51687;52.160;5.298;2023-06-10T08:33:54;5.40;;;4.63;;
43994;SDS011;51687;52.160;5.298;2023-06-10T08:36:21;6.38;;;4.57;;
43994;SDS011;51687;52.160;5.298;2023-06-10T08:38:48;7.70;;;4.75;;
43994;SDS011;51687;52.160;5.298;2023-06-10T08:41:16;7.78;;;4.05;;
43994;SDS011;51687;52.160;5.298;2023-06-10T08:43:45;5.57;;;4.22;;
43994;SDS011;51687;52.160;5.298;2023-06-10T08:46:18;8.32;;;4.18;;
43994;SDS011;51687;52.160;5.298;2023-06-10T08:48:45;6.38;;;4.82;;
43994;SDS011;51687;52.160;5.298;2023-06-10T08:51:15;7.05;;;4.47;;
43994;SDS011;51687;52.160;5.298;2023-06-10T08:53:50;5.63;;;4.38;;
43994;SDS011;51687;52.160;5.298;2023-06-10T08:56:23;6.03;;;4.40;;
43994;SDS011;51687;52.160;5.298;2023-06-10T08:58:52;5.25;;;3.80;;
43994;SDS011;51687;52.160;5.298;2023-06-10T09:01:20;5.97;;;4.47;;
43994;SDS011;51687;52.160;5.298;2023-06-10T09:03:47;7.65;;;4.00;;
43994;SDS011;51687;52.160;5.298;2023-06-10T09:06:14;4.73;;;4.33;;
43994;SDS011;51687;52.160;5.298;2023-06-10T09:08:42;6.80;;;4.65;;
43994;SDS011;51687;52.160;5.298;2023-06-10T09:11:09;9.53;;;4.67;;
43994;SDS011;51687;52.160;5.298;2023-06-10T09:13:36;6.72;;;4.35;;
43994;SDS011;51687;52.160;5.298;2023-06-10T09:16:03;9.82;;;4.32;;
43994;SDS011;51687;52.160;5.298;2023-06-10T09:18:30;5.60;;;4.30;;
43994;SDS011;51687;52.160;5.298;2023-06-10T09:20:57;5.40;;;4.13;;
43994;SDS011;51687;52.160;5.298;2023-06-10T09:23:24;6.10;;;3.97;;
43994;SDS011;51687;52.160;5.298;2023-06-10T09:25:58;6.45;;;4.22;;
43994;SDS011;51687;52.160;5.298;2023-06-10T09:28:25;4.68;;;4.05;;
43994;SDS011;51687;52.160;5.298;2023-06-10T09:31:05;5.00;;;3.60;;
43994;SDS011;51687;52.160;5.298;2023-06-10T09:33:33;4.97;;;4.38;;
43994;SDS011;51687;52.160;5.298;2023-06-10T09:36:04;5.57;;;3.80;;
43994;SDS011;51687;52.160;5.298;2023-06-10T09:38:35;5.13;;;4.22;;
43994;SDS011;51687;52.160;5.298;2023-06-10T09:41:02;4.72;;;3.70;;
43994;SDS011;51687;52.160;5.298;2023-06-10T09:43:44;7.30;;;4.05;;
43994;SDS011;51687;52.160;5.298;2023-06-10T09:46:19;5.97;;;3.72;;
43994;SDS011;51687;52.160;5.298;2023-06-10T09:48:46;5.05;;;3.80;;
43994;SDS011;51687;52.160;5.298;2023-06-10T09:51:14;4.90;;;3.97;;
43994;SDS011;51687;52.160;5.298;2023-06-10T09:53:48;6.22;;;4.13;;
43994;SDS011;51687;52.160;5.298;2023-06-10T09:56:16;5.75;;;4.25;;
43994;SDS011;51687;52.160;5.298;2023-06-10T09:58:44;4.20;;;3.80;;
43994;SDS011;51687;52.160;5.298;2023-06-10T10:01:13;6.95;;;3.92;;
43994;SDS011;51687;52.160;5.298;2023-06-10T10:03:49;4.38;;;3.80;;
43994;SDS011;51687;52.160;5.298;2023-06-10T10:06:17;4.05;;;3.75;;
43994;SDS011;51687;52.160;5.298;2023-06-10T10:11:14;4.80;;;3.35;;
43994;SDS011;51687;52.160;5.298;2023-06-10T10:13:44;8.57;;;4.00;;
43994;SDS011;51687;52.160;5.298;2023-06-10T10:16:17;12.70;;;4.28;;
43994;SDS011;51687;52.160;5.298;2023-06-10T10:18:51;3.83;;;3.50;;
43994;SDS011;51687;52.160;5.298;2023-06-10T10:21:22;5.35;;;3.45;;
43994;SDS011;51687;52.160;5.298;2023-06-10T10:24:09;5.93;;;3.92;;
43994;SDS011;51687;52.160;5.298;2023-06-10T10:26:42;6.70;;;3.72;;
43994;SDS011;51687;52.160;5.298;2023-06-10T10:29:24;7.00;;;3.60;;
43994;SDS011;51687;52.160;5.298;2023-06-10T10:31:57;7.25;;;3.25;;
43994;SDS011;51687;52.160;5.298;2023-06-10T10:34:31;4.40;;;3.83;;
43994;SDS011;51687;52.160;5.298;2023-06-10T10:36:59;8.85;;;3.70;;
43994;SDS011;51687;52.160;5.298;2023-06-10T10:39:26;5.80;;;3.50;;
43994;SDS011;51687;52.160;5.298;2023-06-10T10:41:54;4.75;;;3.50;;
43994;SDS011;51687;52.160;5.298;2023-06-10T10:44:23;13.13;;;3.83;;
43994;SDS011;51687;52.160;5.298;2023-06-10T10:46:50;3.42;;;3.13;;
43994;SDS011;51687;52.160;5.298;2023-06-10T10:49:18;4.55;;;3.90;;
43994;SDS011;51687;52.160;5.298;2023-06-10T10:54:33;3.65;;;3.22;;
43994;SDS011;51687;52.160;5.298;2023-06-10T10:57:17;3.50;;;2.92;;
43994;SDS011;51687;52.160;5.298;2023-06-10T11:02:43;5.97;;;3.85;;
43994;SDS011;51687;52.160;5.298;2023-06-10T11:05:14;4.47;;;3.10;;
43994;SDS011;51687;52.160;5.298;2023-06-10T11:08:03;3.95;;;3.40;;
43994;SDS011;51687;52.160;5.298;2023-06-10T11:10:30;4.63;;;3.63;;
43994;SDS011;51687;52.160;5.298;2023-06-10T11:13:25;3.78;;;3.47;;
43994;SDS011;51687;52.160;5.298;2023-06-10T11:15:49;4.90;;;3.80;;
43994;SDS011;51687;52.160;5.298;2023-06-10T11:18:20;6.70;;;2.65;;
43994;SDS011;51687;52.160;5.298;2023-06-10T11:20:58;8.63;;;3.38;;
43994;SDS011;51687;52.160;5.298;2023-06-10T11:26:13;8.05;;;3.45;;
43994;SDS011;51687;52.160;5.298;2023-06-10T11:31:19;4.40;;;3.65;;
43994;SDS011;51687;52.160;5.298;2023-06-10T11:33:47;4.07;;;3.55;;
43994;SDS011;51687;52.160;5.298;2023-06-10T11:36:15;4.13;;;3.28;;
43994;SDS011;51687;52.160;5.298;2023-06-10T11:38:44;3.75;;;2.75;;
43994;SDS011;51687;52.160;5.298;2023-06-10T11:41:12;3.90;;;3.50;;
43994;SDS011;51687;52.160;5.298;2023-06-10T11:43:45;3.90;;;3.00;;
43994;SDS011;51687;52.160;5.298;2023-06-10T11:46:13;3.40;;;3.10;;
43994;SDS011;51687;52.160;5.298;2023-06-10T11:48:51;9.13;;;3.72;;
43994;SDS011;51687;52.160;5.298;2023-06-10T11:51:19;4.28;;;3.13;;
43994;SDS011;51687;52.160;5.298;2023-06-10T11:53:49;3.63;;;3.33;;
43994;SDS011;51687;52.160;5.298;2023-06-10T11:56:19;3.70;;;3.40;;
43994;SDS011;51687;52.160;5.298;2023-06-10T11:58:54;4.00;;;3.47;;
43994;SDS011;51687;52.160;5.298;2023-06-10T12:01:22;4.07;;;3.72;;
43994;SDS011;51687;52.160;5.298;2023-06-10T12:04:04;9.02;;;3.45;;
43994;SDS011;51687;52.160;5.298;2023-06-10T12:09:06;6.38;;;3.75;;
43994;SDS011;51687;52.160;5.298;2023-06-10T12:11:51;3.80;;;3.30;;
43994;SDS011;51687;52.160;5.298;2023-06-10T12:17:06;4.22;;;3.83;;
43994;SDS011;51687;52.160;5.298;2023-06-10T12:19:37;6.23;;;3.40;;
43994;SDS011;51687;52.160;5.298;2023-06-10T12:22:06;5.47;;;3.83;;
43994;SDS011;51687;52.160;5.298;2023-06-10T12:24:33;3.83;;;3.07;;
43994;SDS011;51687;52.160;5.298;2023-06-10T12:27:11;4.15;;;3.75;;
43994;SDS011;51687;52.160;5.298;2023-06-10T12:29:38;3.10;;;2.80;;
43994;SDS011;51687;52.160;5.298;2023-06-10T12:32:05;5.80;;;3.30;;
43994;SDS011;51687;52.160;5.298;2023-06-10T12:34:34;3.47;;;2.90;;
43994;SDS011;51687;52.160;5.298;2023-06-10T12:37:06;4.03;;;3.20;;
43994;SDS011;51687;52.160;5.298;2023-06-10T12:39:33;8.13;;;3.78;;
43994;SDS011;51687;52.160;5.298;2023-06-10T12:42:00;4.07;;;3.23;;
43994;SDS011;51687;52.160;5.298;2023-06-10T12:44:30;3.95;;;3.55;;
43994;SDS011;51687;52.160;5.298;2023-06-10T12:46:57;6.50;;;3.90;;
43994;SDS011;51687;52.160;5.298;2023-06-10T12:49:24;10.88;;;3.38;;
43994;SDS011;51687;52.160;5.298;2023-06-10T12:51:52;4.13;;;2.97;;
43994;SDS011;51687;52.160;5.298;2023-06-10T12:54:20;4.53;;;2.97;;
43994;SDS011;51687;52.160;5.298;2023-06-10T12:56:47;3.60;;;3.13;;
43994;SDS011;51687;52.160;5.298;2023-06-10T12:59:15;4.97;;;3.30;;
43994;SDS011;51687;52.160;5.298;2023-06-10T13:01:42;5.60;;;3.35;;
43994;SDS011;51687;52.160;5.298;2023-06-10T13:04:09;4.50;;;4.10;;
43994;SDS011;51687;52.160;5.298;2023-06-10T13:06:36;6.97;;;3.23;;
43994;SDS011;51687;52.160;5.298;2023-06-10T13:09:05;5.20;;;3.50;;
43994;SDS011;51687;52.160;5.298;2023-06-10T13:14:03;3.85;;;3.45;;
43994;SDS011;51687;52.160;5.298;2023-06-10T13:16:32;3.90;;;3.05;;
43994;SDS011;51687;52.160;5.298;2023-06-10T13:18:59;7.82;;;4.18;;
43994;SDS011;51687;52.160;5.298;2023-06-10T13:21:28;4.60;;;3.53;;
43994;SDS011;51687;52.160;5.298;2023-06-10T13:23:55;4.20;;;3.53;;
43994;SDS011;51687;52.160;5.298;2023-06-10T13:26:22;4.97;;;4.03;;
43994;SDS011;51687;52.160;5.298;2023-06-10T13:28:49;4.65;;;3.17;;
43994;SDS011;51687;52.160;5.298;2023-06-10T13:31:16;3.72;;;3.30;;
43994;SDS011;51687;52.160;5.298;2023-06-10T13:33:43;3.45;;;3.22;;
43994;SDS011;51687;52.160;5.298;2023-06-10T13:36:10;5.25;;;3.80;;
43994;SDS011;51687;52.160;5.298;2023-06-10T13:38:38;9.10;;;3.22;;
43994;SDS011;51687;52.160;5.298;2023-06-10T13:41:06;7.78;;;3.70;;
43994;SDS011;51687;52.160;5.298;2023-06-10T13:43:33;4.28;;;3.70;;
43994;SDS011;51687;52.160;5.298;2023-06-10T13:46:00;5.53;;;3.25;;
43994;SDS011;51687;52.160;5.298;2023-06-10T13:48:27;3.60;;;3.30;;
43994;SDS011;51687;52.160;5.298;2023-06-10T13:50:54;4.68;;;3.40;;
43994;SDS011;51687;52.160;5.298;2023-06-10T13:53:21;3.97;;;3.65;;
43994;SDS011;51687;52.160;5.298;2023-06-10T13:55:47;5.00;;;3.15;;
43994;SDS011;51687;52.160;5.298;2023-06-10T13:58:14;9.25;;;3.15;;
43994;SDS011;51687;52.160;5.298;2023-06-10T14:00:41;3.65;;;3.22;;
43994;SDS011;51687;52.160;5.298;2023-06-10T14:03:08;3.63;;;3.30;;
43994;SDS011;51687;52.160;5.298;2023-06-10T14:05:35;4.35;;;3.40;;
43994;SDS011;51687;52.160;5.298;2023-06-10T14:08:01;4.93;;;3.05;;
43994;SDS011;51687;52.160;5.298;2023-06-10T14:10:29;4.27;;;3.50;;
43994;SDS011;51687;52.160;5.298;2023-06-10T14:12:55;6.15;;;3.50;;
43994;SDS011;51687;52.160;5.298;2023-06-10T14:15:22;3.60;;;3.30;;
43994;SDS011;51687;52.160;5.298;2023-06-10T14:17:49;5.97;;;3.50;;
43994;SDS011;51687;52.160;5.298;2023-06-10T14:20:16;7.07;;;3.67;;
43994;SDS011;51687;52.160;5.298;2023-06-10T14:22:43;4.35;;;3.50;;
43994;SDS011;51687;52.160;5.298;2023-06-10T14:25:09;3.97;;;3.05;;
43994;SDS011;51687;52.160;5.298;2023-06-10T14:27:37;4.10;;;3.30;;
43994;SDS011;51687;52.160;5.298;2023-06-10T14:30:04;3.55;;;3.22;;
43994;SDS011;51687;52.160;5.298;2023-06-10T14:32:31;3.67;;;2.85;;
43994;SDS011;51687;52.160;5.298;2023-06-10T14:34:58;3.63;;;3.00;;
43994;SDS011;51687;52.160;5.298;2023-06-10T14:37:25;3.40;;;3.03;;
43994;SDS011;51687;52.160;5.298;2023-06-10T14:39:52;3.78;;;3.00;;
43994;SDS011;51687;52.160;5.298;2023-06-10T14:42:19;3.58;;;3.28;;
43994;SDS011;51687;52.160;5.298;2023-06-10T14:44:45;3.50;;;3.20;;
43994;SDS011;51687;52.160;5.298;2023-06-10T14:47:13;5.53;;;3.93;;
43994;SDS011;51687;52.160;5.298;2023-06-10T14:49:39;6.85;;;3.25;;
43994;SDS011;51687;52.160;5.298;2023-06-10T14:52:08;4.05;;;3.33;;
43994;SDS011;51687;52.160;5.298;2023-06-10T14:54:35;3.50;;;3.20;;
43994;SDS011;51687;52.160;5.298;2023-06-10T14:57:03;4.55;;;3.30;;
43994;SDS011;51687;52.160;5.298;2023-06-10T14:59:31;6.40;;;3.60;;
43994;SDS011;51687;52.160;5.298;2023-06-10T15:02:00;5.50;;;3.20;;
43994;SDS011;51687;52.160;5.298;2023-06-10T15:04:27;5.10;;;3.30;;
43994;SDS011;51687;52.160;5.298;2023-06-10T15:06:54;3.08;;;2.80;;
43994;SDS011;51687;52.160;5.298;2023-06-10T15:09:21;4.15;;;3.30;;
43994;SDS011;51687;52.160;5.298;2023-06-10T15:11:48;4.30;;;3.00;;
43994;SDS011;51687;52.160;5.298;2023-06-10T15:14:15;5.25;;;3.55;;
43994;SDS011;51687;52.160;5.298;2023-06-10T15:16:41;5.40;;;3.28;;
43994;SDS011;51687;52.160;5.298;2023-06-10T15:19:08;3.22;;;2.80;;
43994;SDS011;51687;52.160;5.298;2023-06-10T15:21:35;3.27;;;2.93;;
43994;SDS011;51687;52.160;5.298;2023-06-10T15:24:02;4.18;;;3.75;;
43994;SDS011;51687;52.160;5.298;2023-06-10T15:26:29;4.10;;;3.70;;
43994;SDS011;51687;52.160;5.298;2023-06-10T15:28:56;4.57;;;3.85;;